sensor_id;sensor_type;location;lat;lon;timestamp;P1;durP1;ratioP1;P2;durP2;ratioP2
73642;SDS011;61938;48.652;9.292;2024-01-30T00:02:24;24.00;;;11.77;;
73642;SDS011;61938;48.652;9.292;2024-01-30T00:04:50;24.40;;;11.52;;
73642;SDS011;61938;48.652;9.292;2024-01-30T00:07:16;25.02;;;11.90;;
73642;SDS011;61938;48.652;9.292;2024-01-30T00:09:41;21.55;;;11.48;;
73642;SDS011;61938;48.652;9.292;2024-01-30T00:12:07;26.27;;;12.95;;
73642;SDS011;61938;48.652;9.292;2024-01-30T00:14:32;25.70;;;12.27;;
73642;SDS011;61938;48.652;9.292;2024-01-30T00:16:58;27.90;;;12.15;;
73642;SDS011;61938;48.652;9.292;2024-01-30T00:19:23;28.35;;;12.93;;
73642;SDS011;61938;48.652;9.292;2024-01-30T00:21:49;25.40;;;12.70;;
73642;SDS011;61938;48.652;9.292;2024-01-30T00:24:14;28.00;;;13.05;;
73642;SDS011;61938;48.652;9.292;2024-01-30T00:26:40;23.88;;;12.23;;
73642;SDS011;61938;48.652;9.292;2024-01-30T00:29:05;23.27;;;12.15;;
73642;SDS011;61938;48.652;9.292;2024-01-30T00:31:31;28.38;;;12.48;;
73642;SDS011;61938;48.652;9.292;2024-01-30T00:33:56;23.85;;;11.98;;
73642;SDS011;61938;48.652;9.292;2024-01-30T00:36:22;25.92;;;12.30;;
73642;SDS011;61938;48.652;9.292;2024-01-30T00:38:47;27.30;;;12.20;;
73642;SDS011;61938;48.652;9.292;2024-01-30T00:41:13;21.80;;;11.18;;
73642;SDS011;61938;48.652;9.292;2024-01-30T00:43:39;26.13;;;11.65;;
73642;SDS011;61938;48.652;9.292;2024-01-30T00:46:04;25.00;;;12.48;;
73642;SDS011;61938;48.652;9.292;2024-01-30T00:48:30;23.02;;;11.40;;
73642;SDS011;61938;48.652;9.292;2024-01-30T00:50:55;24.63;;;12.07;;
73642;SDS011;61938;48.652;9.292;2024-01-30T00:53:21;24.00;;;12.20;;
73642;SDS011;61938;48.652;9.292;2024-01-30T00:55:46;22.27;;;11.00;;
73642;SDS011;61938;48.652;9.292;2024-01-30T00:58:12;23.02;;;11.20;;
73642;SDS011;61938;48.652;9.292;2024-01-30T01:00:38;24.23;;;11.02;;
73642;SDS011;61938;48.652;9.292;2024-01-30T01:03:04;24.90;;;11.35;;
73642;SDS011;61938;48.652;9.292;2024-01-30T01:05:30;24.88;;;10.75;;
73642;SDS011;61938;48.652;9.292;2024-01-30T01:07:56;21.05;;;11.00;;
73642;SDS011;61938;48.652;9.292;2024-01-30T01:10:21;25.67;;;12.02;;
73642;SDS011;61938;48.652;9.292;2024-01-30T01:12:47;26.67;;;12.15;;
73642;SDS011;61938;48.652;9.292;2024-01-30T01:15:13;23.27;;;11.18;;
73642;SDS011;61938;48.652;9.292;2024-01-30T01:17:38;24.38;;;11.00;;
73642;SDS011;61938;48.652;9.292;2024-01-30T01:20:05;20.70;;;10.63;;
73642;SDS011;61938;48.652;9.292;2024-01-30T01:22:32;22.77;;;11.18;;
73642;SDS011;61938;48.652;9.292;2024-01-30T01:25:01;22.73;;;11.57;;
73642;SDS011;61938;48.652;9.292;2024-01-30T01:27:26;19.73;;;10.57;;
73642;SDS011;61938;48.652;9.292;2024-01-30T01:29:52;22.67;;;10.35;;
73642;SDS011;61938;48.652;9.292;2024-01-30T01:32:18;20.35;;;11.05;;
73642;SDS011;61938;48.652;9.292;2024-01-30T01:34:44;21.83;;;10.82;;
73642;SDS011;61938;48.652;9.292;2024-01-30T01:37:09;22.52;;;11.20;;
73642;SDS011;61938;48.652;9.292;2024-01-30T01:39:35;25.40;;;11.65;;
73642;SDS011;61938;48.652;9.292;2024-01-30T01:42:01;20.77;;;10.82;;
73642;SDS011;61938;48.652;9.292;2024-01-30T01:44:27;20.48;;;10.63;;
73642;SDS011;61938;48.652;9.292;2024-01-30T01:46:52;24.08;;;11.73;;
73642;SDS011;61938;48.652;9.292;2024-01-30T01:49:19;24.08;;;11.43;;
73642;SDS011;61938;48.652;9.292;2024-01-30T01:51:46;23.23;;;11.23;;
73642;SDS011;61938;48.652;9.292;2024-01-30T01:54:13;24.77;;;11.75;;
73642;SDS011;61938;48.652;9.292;2024-01-30T01:56:39;21.52;;;10.88;;
73642;SDS011;61938;48.652;9.292;2024-01-30T01:59:06;17.25;;;10.63;;
73642;SDS011;61938;48.652;9.292;2024-01-30T02:01:33;28.45;;;12.15;;
73642;SDS011;61938;48.652;9.292;2024-01-30T02:03:59;23.17;;;11.80;;
73642;SDS011;61938;48.652;9.292;2024-01-30T02:06:25;20.80;;;10.80;;
73642;SDS011;61938;48.652;9.292;2024-01-30T02:08:51;22.67;;;11.18;;
73642;SDS011;61938;48.652;9.292;2024-01-30T02:11:17;21.48;;;11.15;;
73642;SDS011;61938;48.652;9.292;2024-01-30T02:13:43;23.75;;;11.95;;
73642;SDS011;61938;48.652;9.292;2024-01-30T02:16:08;23.17;;;11.23;;
73642;SDS011;61938;48.652;9.292;2024-01-30T02:18:35;23.02;;;11.05;;
73642;SDS011;61938;48.652;9.292;2024-01-30T02:21:04;24.58;;;11.35;;
73642;SDS011;61938;48.652;9.292;2024-01-30T02:23:30;22.73;;;11.80;;
73642;SDS011;61938;48.652;9.292;2024-01-30T02:25:57;24.27;;;11.55;;
73642;SDS011;61938;48.652;9.292;2024-01-30T02:28:23;25.42;;;12.65;;
73642;SDS011;61938;48.652;9.292;2024-01-30T02:30:49;29.85;;;12.48;;
73642;SDS011;61938;48.652;9.292;2024-01-30T02:33:14;26.00;;;12.13;;
73642;SDS011;61938;48.652;9.292;2024-01-30T02:35:40;24.63;;;11.85;;
73642;SDS011;61938;48.652;9.292;2024-01-30T02:38:05;24.40;;;12.23;;
73642;SDS011;61938;48.652;9.292;2024-01-30T02:40:31;22.88;;;12.52;;
73642;SDS011;61938;48.652;9.292;2024-01-30T02:42:58;26.77;;;13.38;;
73642;SDS011;61938;48.652;9.292;2024-01-30T02:45:24;22.10;;;11.05;;
73642;SDS011;61938;48.652;9.292;2024-01-30T02:47:50;25.95;;;11.45;;
73642;SDS011;61938;48.652;9.292;2024-01-30T02:50:15;21.23;;;10.90;;
73642;SDS011;61938;48.652;9.292;2024-01-30T02:52:41;26.48;;;12.45;;
73642;SDS011;61938;48.652;9.292;2024-01-30T02:55:08;25.20;;;12.98;;
73642;SDS011;61938;48.652;9.292;2024-01-30T02:57:34;27.33;;;12.95;;
73642;SDS011;61938;48.652;9.292;2024-01-30T03:00:00;22.90;;;12.27;;
73642;SDS011;61938;48.652;9.292;2024-01-30T03:02:25;23.05;;;11.27;;
73642;SDS011;61938;48.652;9.292;2024-01-30T03:04:51;27.08;;;12.05;;
73642;SDS011;61938;48.652;9.292;2024-01-30T03:07:17;24.15;;;11.85;;
73642;SDS011;61938;48.652;9.292;2024-01-30T03:09:43;21.45;;;11.57;;
73642;SDS011;61938;48.652;9.292;2024-01-30T03:12:09;23.38;;;11.43;;
73642;SDS011;61938;48.652;9.292;2024-01-30T03:14:35;22.00;;;10.93;;
73642;SDS011;61938;48.652;9.292;2024-01-30T03:17:01;23.88;;;12.23;;
73642;SDS011;61938;48.652;9.292;2024-01-30T03:19:27;22.05;;;12.57;;
73642;SDS011;61938;48.652;9.292;2024-01-30T03:21:53;24.55;;;11.60;;
73642;SDS011;61938;48.652;9.292;2024-01-30T03:24:19;24.48;;;12.43;;
73642;SDS011;61938;48.652;9.292;2024-01-30T03:26:44;21.33;;;11.65;;
73642;SDS011;61938;48.652;9.292;2024-01-30T03:29:09;24.60;;;11.77;;
73642;SDS011;61938;48.652;9.292;2024-01-30T03:31:35;25.80;;;12.07;;
73642;SDS011;61938;48.652;9.292;2024-01-30T03:34:01;22.45;;;12.13;;
73642;SDS011;61938;48.652;9.292;2024-01-30T03:36:27;27.92;;;12.85;;
73642;SDS011;61938;48.652;9.292;2024-01-30T03:38:52;25.80;;;12.90;;
73642;SDS011;61938;48.652;9.292;2024-01-30T03:41:18;24.98;;;11.10;;
73642;SDS011;61938;48.652;9.292;2024-01-30T03:43:44;26.95;;;12.25;;
73642;SDS011;61938;48.652;9.292;2024-01-30T03:46:11;21.25;;;11.70;;
73642;SDS011;61938;48.652;9.292;2024-01-30T03:48:37;23.52;;;12.15;;
73642;SDS011;61938;48.652;9.292;2024-01-30T03:51:03;24.98;;;12.88;;
73642;SDS011;61938;48.652;9.292;2024-01-30T03:53:29;23.23;;;11.45;;
73642;SDS011;61938;48.652;9.292;2024-01-30T03:55:54;20.63;;;11.70;;
73642;SDS011;61938;48.652;9.292;2024-01-30T03:58:20;27.38;;;11.93;;
73642;SDS011;61938;48.652;9.292;2024-01-30T04:00:45;25.63;;;11.50;;
73642;SDS011;61938;48.652;9.292;2024-01-30T04:03:11;24.80;;;13.13;;
73642;SDS011;61938;48.652;9.292;2024-01-30T04:05:36;24.17;;;11.13;;
73642;SDS011;61938;48.652;9.292;2024-01-30T04:08:02;22.77;;;11.43;;
73642;SDS011;61938;48.652;9.292;2024-01-30T04:10:27;23.73;;;11.90;;
73642;SDS011;61938;48.652;9.292;2024-01-30T04:12:53;22.55;;;11.20;;
73642;SDS011;61938;48.652;9.292;2024-01-30T04:15:20;25.02;;;11.52;;
73642;SDS011;61938;48.652;9.292;2024-01-30T04:17:45;21.73;;;11.20;;
73642;SDS011;61938;48.652;9.292;2024-01-30T04:20:14;19.73;;;11.18;;
73642;SDS011;61938;48.652;9.292;2024-01-30T04:22:42;27.67;;;14.00;;
73642;SDS011;61938;48.652;9.292;2024-01-30T04:25:11;27.65;;;13.77;;
73642;SDS011;61938;48.652;9.292;2024-01-30T04:27:37;23.00;;;11.88;;
73642;SDS011;61938;48.652;9.292;2024-01-30T04:30:03;21.55;;;11.52;;
73642;SDS011;61938;48.652;9.292;2024-01-30T04:32:29;28.50;;;12.70;;
73642;SDS011;61938;48.652;9.292;2024-01-30T04:34:54;27.38;;;11.50;;
73642;SDS011;61938;48.652;9.292;2024-01-30T04:37:20;23.50;;;11.88;;
73642;SDS011;61938;48.652;9.292;2024-01-30T04:39:45;23.98;;;12.63;;
73642;SDS011;61938;48.652;9.292;2024-01-30T04:42:11;24.92;;;12.07;;
73642;SDS011;61938;48.652;9.292;2024-01-30T04:44:36;34.92;;;11.98;;
73642;SDS011;61938;48.652;9.292;2024-01-30T04:47:02;22.73;;;11.45;;
73642;SDS011;61938;48.652;9.292;2024-01-30T04:49:28;19.60;;;10.73;;
73642;SDS011;61938;48.652;9.292;2024-01-30T04:51:54;22.85;;;11.10;;
73642;SDS011;61938;48.652;9.292;2024-01-30T04:54:20;22.35;;;12.13;;
73642;SDS011;61938;48.652;9.292;2024-01-30T04:56:45;21.55;;;10.93;;
73642;SDS011;61938;48.652;9.292;2024-01-30T04:59:11;26.58;;;11.98;;
73642;SDS011;61938;48.652;9.292;2024-01-30T05:01:37;26.27;;;12.35;;
73642;SDS011;61938;48.652;9.292;2024-01-30T05:04:02;25.00;;;12.23;;
73642;SDS011;61938;48.652;9.292;2024-01-30T05:06:28;23.35;;;11.82;;
73642;SDS011;61938;48.652;9.292;2024-01-30T05:08:54;23.98;;;11.68;;
73642;SDS011;61938;48.652;9.292;2024-01-30T05:11:20;22.83;;;10.85;;
73642;SDS011;61938;48.652;9.292;2024-01-30T05:13:46;24.38;;;11.38;;
73642;SDS011;61938;48.652;9.292;2024-01-30T05:16:11;31.95;;;14.13;;
73642;SDS011;61938;48.652;9.292;2024-01-30T05:18:37;29.67;;;15.05;;
73642;SDS011;61938;48.652;9.292;2024-01-30T05:21:03;30.17;;;14.05;;
73642;SDS011;61938;48.652;9.292;2024-01-30T05:23:28;25.25;;;12.65;;
73642;SDS011;61938;48.652;9.292;2024-01-30T05:25:54;26.73;;;14.45;;
73642;SDS011;61938;48.652;9.292;2024-01-30T05:28:19;29.70;;;15.00;;
73642;SDS011;61938;48.652;9.292;2024-01-30T05:30:45;27.02;;;13.45;;
73642;SDS011;61938;48.652;9.292;2024-01-30T05:33:10;31.40;;;13.48;;
73642;SDS011;61938;48.652;9.292;2024-01-30T05:35:37;26.40;;;12.48;;
73642;SDS011;61938;48.652;9.292;2024-01-30T05:38:02;24.00;;;12.32;;
73642;SDS011;61938;48.652;9.292;2024-01-30T05:40:29;25.63;;;13.70;;
73642;SDS011;61938;48.652;9.292;2024-01-30T05:42:55;26.27;;;13.38;;
73642;SDS011;61938;48.652;9.292;2024-01-30T05:45:20;27.60;;;12.00;;
73642;SDS011;61938;48.652;9.292;2024-01-30T05:47:48;31.25;;;13.02;;
73642;SDS011;61938;48.652;9.292;2024-01-30T05:50:13;24.52;;;13.07;;
73642;SDS011;61938;48.652;9.292;2024-01-30T05:52:39;23.23;;;11.98;;
73642;SDS011;61938;48.652;9.292;2024-01-30T05:55:04;23.48;;;11.75;;
73642;SDS011;61938;48.652;9.292;2024-01-30T05:57:30;23.30;;;11.88;;
73642;SDS011;61938;48.652;9.292;2024-01-30T05:59:56;20.88;;;11.43;;
73642;SDS011;61938;48.652;9.292;2024-01-30T06:02:21;23.55;;;11.55;;
73642;SDS011;61938;48.652;9.292;2024-01-30T06:04:47;24.50;;;12.52;;
73642;SDS011;61938;48.652;9.292;2024-01-30T06:07:12;23.90;;;11.55;;
73642;SDS011;61938;48.652;9.292;2024-01-30T06:09:38;23.92;;;11.93;;
73642;SDS011;61938;48.652;9.292;2024-01-30T06:12:04;20.88;;;11.18;;
73642;SDS011;61938;48.652;9.292;2024-01-30T06:14:30;25.15;;;11.38;;
73642;SDS011;61938;48.652;9.292;2024-01-30T06:16:55;25.35;;;12.43;;
73642;SDS011;61938;48.652;9.292;2024-01-30T06:19:21;20.73;;;11.75;;
73642;SDS011;61938;48.652;9.292;2024-01-30T06:21:46;27.45;;;11.23;;
73642;SDS011;61938;48.652;9.292;2024-01-30T06:24:12;23.10;;;12.52;;
73642;SDS011;61938;48.652;9.292;2024-01-30T06:26:37;24.23;;;11.43;;
73642;SDS011;61938;48.652;9.292;2024-01-30T06:29:03;20.33;;;10.30;;
73642;SDS011;61938;48.652;9.292;2024-01-30T06:31:28;27.55;;;10.77;;
73642;SDS011;61938;48.652;9.292;2024-01-30T06:33:54;19.88;;;11.32;;
73642;SDS011;61938;48.652;9.292;2024-01-30T06:36:19;22.83;;;11.35;;
73642;SDS011;61938;48.652;9.292;2024-01-30T06:38:45;26.90;;;12.38;;
73642;SDS011;61938;48.652;9.292;2024-01-30T06:41:10;25.85;;;11.02;;
73642;SDS011;61938;48.652;9.292;2024-01-30T06:43:36;23.20;;;10.95;;
73642;SDS011;61938;48.652;9.292;2024-01-30T06:46:01;26.67;;;12.82;;
73642;SDS011;61938;48.652;9.292;2024-01-30T06:48:27;19.83;;;10.60;;
73642;SDS011;61938;48.652;9.292;2024-01-30T06:50:53;22.02;;;11.38;;
73642;SDS011;61938;48.652;9.292;2024-01-30T06:53:19;20.30;;;10.43;;
73642;SDS011;61938;48.652;9.292;2024-01-30T06:55:44;20.48;;;10.93;;
73642;SDS011;61938;48.652;9.292;2024-01-30T06:58:10;23.08;;;10.73;;
73642;SDS011;61938;48.652;9.292;2024-01-30T07:00:35;20.85;;;10.82;;
73642;SDS011;61938;48.652;9.292;2024-01-30T07:03:01;23.25;;;12.25;;
73642;SDS011;61938;48.652;9.292;2024-01-30T07:05:27;22.15;;;11.15;;
73642;SDS011;61938;48.652;9.292;2024-01-30T07:07:52;19.38;;;11.10;;
73642;SDS011;61938;48.652;9.292;2024-01-30T07:10:18;20.45;;;10.63;;
73642;SDS011;61938;48.652;9.292;2024-01-30T07:12:43;22.58;;;11.68;;
73642;SDS011;61938;48.652;9.292;2024-01-30T07:15:09;23.83;;;12.07;;
73642;SDS011;61938;48.652;9.292;2024-01-30T07:17:35;27.30;;;11.10;;
73642;SDS011;61938;48.652;9.292;2024-01-30T07:20:01;21.00;;;11.13;;
73642;SDS011;61938;48.652;9.292;2024-01-30T07:22:29;20.45;;;10.68;;
73642;SDS011;61938;48.652;9.292;2024-01-30T07:24:56;21.48;;;10.70;;
73642;SDS011;61938;48.652;9.292;2024-01-30T07:27:21;23.92;;;11.40;;
73642;SDS011;61938;48.652;9.292;2024-01-30T07:29:47;21.58;;;11.43;;
73642;SDS011;61938;48.652;9.292;2024-01-30T07:32:12;22.50;;;11.15;;
73642;SDS011;61938;48.652;9.292;2024-01-30T07:34:38;22.88;;;10.77;;
73642;SDS011;61938;48.652;9.292;2024-01-30T07:37:03;24.85;;;10.90;;
73642;SDS011;61938;48.652;9.292;2024-01-30T07:39:29;23.08;;;11.10;;
73642;SDS011;61938;48.652;9.292;2024-01-30T07:41:54;21.92;;;10.07;;
73642;SDS011;61938;48.652;9.292;2024-01-30T07:44:20;20.42;;;10.10;;
73642;SDS011;61938;48.652;9.292;2024-01-30T07:46:46;23.85;;;12.02;;
73642;SDS011;61938;48.652;9.292;2024-01-30T07:49:11;21.48;;;10.95;;
73642;SDS011;61938;48.652;9.292;2024-01-30T07:51:39;21.40;;;10.65;;
73642;SDS011;61938;48.652;9.292;2024-01-30T07:54:04;20.48;;;10.45;;
73642;SDS011;61938;48.652;9.292;2024-01-30T07:56:30;19.25;;;10.82;;
73642;SDS011;61938;48.652;9.292;2024-01-30T07:58:55;26.75;;;12.30;;
73642;SDS011;61938;48.652;9.292;2024-01-30T08:01:21;24.60;;;11.77;;
73642;SDS011;61938;48.652;9.292;2024-01-30T08:03:46;20.75;;;11.98;;
73642;SDS011;61938;48.652;9.292;2024-01-30T08:06:12;24.55;;;11.70;;
73642;SDS011;61938;48.652;9.292;2024-01-30T08:08:37;26.00;;;12.07;;
73642;SDS011;61938;48.652;9.292;2024-01-30T08:11:03;21.85;;;12.23;;
73642;SDS011;61938;48.652;9.292;2024-01-30T08:13:29;28.92;;;12.15;;
73642;SDS011;61938;48.652;9.292;2024-01-30T08:15:54;26.60;;;12.13;;
73642;SDS011;61938;48.652;9.292;2024-01-30T08:18:20;20.92;;;11.32;;
73642;SDS011;61938;48.652;9.292;2024-01-30T08:20:45;28.65;;;11.18;;
73642;SDS011;61938;48.652;9.292;2024-01-30T08:23:11;23.27;;;11.98;;
73642;SDS011;61938;48.652;9.292;2024-01-30T08:25:36;24.92;;;12.32;;
73642;SDS011;61938;48.652;9.292;2024-01-30T08:28:02;25.92;;;12.73;;
73642;SDS011;61938;48.652;9.292;2024-01-30T08:30:29;23.02;;;12.27;;
73642;SDS011;61938;48.652;9.292;2024-01-30T08:32:54;24.17;;;12.25;;
73642;SDS011;61938;48.652;9.292;2024-01-30T08:35:20;21.60;;;12.65;;
73642;SDS011;61938;48.652;9.292;2024-01-30T08:37:45;27.63;;;13.32;;
73642;SDS011;61938;48.652;9.292;2024-01-30T08:40:11;22.40;;;12.02;;
73642;SDS011;61938;48.652;9.292;2024-01-30T08:42:36;23.77;;;11.82;;
73642;SDS011;61938;48.652;9.292;2024-01-30T08:45:02;26.55;;;13.63;;
73642;SDS011;61938;48.652;9.292;2024-01-30T08:47:29;23.50;;;12.60;;
73642;SDS011;61938;48.652;9.292;2024-01-30T08:49:55;23.30;;;12.43;;
73642;SDS011;61938;48.652;9.292;2024-01-30T08:52:20;23.35;;;11.45;;
73642;SDS011;61938;48.652;9.292;2024-01-30T08:54:46;21.38;;;11.50;;
73642;SDS011;61938;48.652;9.292;2024-01-30T08:57:11;24.65;;;11.57;;
73642;SDS011;61938;48.652;9.292;2024-01-30T08:59:37;20.85;;;11.00;;
73642;SDS011;61938;48.652;9.292;2024-01-30T09:02:02;25.15;;;12.25;;
73642;SDS011;61938;48.652;9.292;2024-01-30T09:04:29;24.15;;;12.25;;
73642;SDS011;61938;48.652;9.292;2024-01-30T09:06:54;23.73;;;11.95;;
73642;SDS011;61938;48.652;9.292;2024-01-30T09:09:20;21.77;;;11.32;;
73642;SDS011;61938;48.652;9.292;2024-01-30T09:11:45;22.98;;;11.98;;
73642;SDS011;61938;48.652;9.292;2024-01-30T09:14:11;22.00;;;11.13;;
73642;SDS011;61938;48.652;9.292;2024-01-30T09:16:37;18.65;;;10.07;;
73642;SDS011;61938;48.652;9.292;2024-01-30T09:19:03;23.38;;;11.10;;
73642;SDS011;61938;48.652;9.292;2024-01-30T09:21:29;22.08;;;11.38;;
73642;SDS011;61938;48.652;9.292;2024-01-30T09:24:00;20.98;;;10.63;;
73642;SDS011;61938;48.652;9.292;2024-01-30T09:26:27;20.95;;;11.13;;
73642;SDS011;61938;48.652;9.292;2024-01-30T09:28:53;22.65;;;11.05;;
73642;SDS011;61938;48.652;9.292;2024-01-30T09:31:18;22.45;;;11.43;;
73642;SDS011;61938;48.652;9.292;2024-01-30T09:33:44;24.90;;;10.98;;
73642;SDS011;61938;48.652;9.292;2024-01-30T09:36:12;18.85;;;10.75;;
73642;SDS011;61938;48.652;9.292;2024-01-30T09:38:40;19.25;;;10.48;;
73642;SDS011;61938;48.652;9.292;2024-01-30T09:41:06;20.00;;;10.48;;
73642;SDS011;61938;48.652;9.292;2024-01-30T09:43:35;22.08;;;10.75;;
73642;SDS011;61938;48.652;9.292;2024-01-30T09:46:02;21.10;;;10.32;;
73642;SDS011;61938;48.652;9.292;2024-01-30T09:48:29;19.20;;;10.15;;
73642;SDS011;61938;48.652;9.292;2024-01-30T09:50:55;19.35;;;10.07;;
73642;SDS011;61938;48.652;9.292;2024-01-30T09:53:22;26.83;;;10.88;;
73642;SDS011;61938;48.652;9.292;2024-01-30T09:55:48;18.90;;;9.40;;
73642;SDS011;61938;48.652;9.292;2024-01-30T09:58:15;18.40;;;9.75;;
73642;SDS011;61938;48.652;9.292;2024-01-30T10:00:41;20.10;;;10.70;;
73642;SDS011;61938;48.652;9.292;2024-01-30T10:03:07;18.25;;;9.35;;
73642;SDS011;61938;48.652;9.292;2024-01-30T10:05:33;18.13;;;9.77;;
73642;SDS011;61938;48.652;9.292;2024-01-30T10:08:05;21.80;;;10.25;;
73642;SDS011;61938;48.652;9.292;2024-01-30T10:10:31;18.42;;;9.60;;
73642;SDS011;61938;48.652;9.292;2024-01-30T10:12:56;19.13;;;9.88;;
73642;SDS011;61938;48.652;9.292;2024-01-30T10:15:22;17.45;;;10.30;;
73642;SDS011;61938;48.652;9.292;2024-01-30T10:17:48;19.27;;;9.30;;
73642;SDS011;61938;48.652;9.292;2024-01-30T10:20:14;23.58;;;10.60;;
73642;SDS011;61938;48.652;9.292;2024-01-30T10:22:40;18.60;;;9.85;;
73642;SDS011;61938;48.652;9.292;2024-01-30T10:25:09;19.27;;;10.32;;
73642;SDS011;61938;48.652;9.292;2024-01-30T10:27:35;23.55;;;11.52;;
73642;SDS011;61938;48.652;9.292;2024-01-30T10:30:01;26.35;;;11.80;;
73642;SDS011;61938;48.652;9.292;2024-01-30T10:32:28;21.70;;;11.05;;
73642;SDS011;61938;48.652;9.292;2024-01-30T10:34:54;24.38;;;11.20;;
73642;SDS011;61938;48.652;9.292;2024-01-30T10:37:19;26.75;;;13.05;;
73642;SDS011;61938;48.652;9.292;2024-01-30T10:39:49;22.33;;;12.57;;
73642;SDS011;61938;48.652;9.292;2024-01-30T10:42:18;32.65;;;14.50;;
73642;SDS011;61938;48.652;9.292;2024-01-30T10:45:18;28.33;;;13.40;;
73642;SDS011;61938;48.652;9.292;2024-01-30T10:47:42;25.80;;;12.20;;
73642;SDS011;61938;48.652;9.292;2024-01-30T10:50:10;25.73;;;12.35;;
73642;SDS011;61938;48.652;9.292;2024-01-30T10:52:36;24.83;;;12.13;;
73642;SDS011;61938;48.652;9.292;2024-01-30T10:55:01;24.27;;;12.30;;
73642;SDS011;61938;48.652;9.292;2024-01-30T10:57:31;21.92;;;11.27;;
73642;SDS011;61938;48.652;9.292;2024-01-30T11:00:00;22.23;;;12.00;;
73642;SDS011;61938;48.652;9.292;2024-01-30T11:02:30;17.73;;;10.93;;
73642;SDS011;61938;48.652;9.292;2024-01-30T11:04:57;19.23;;;10.75;;
73642;SDS011;61938;48.652;9.292;2024-01-30T11:07:24;21.48;;;11.45;;
73642;SDS011;61938;48.652;9.292;2024-01-30T11:12:23;17.90;;;10.50;;
73642;SDS011;61938;48.652;9.292;2024-01-30T11:14:50;23.80;;;11.48;;
73642;SDS011;61938;48.652;9.292;2024-01-30T11:17:29;21.67;;;13.05;;
73642;SDS011;61938;48.652;9.292;2024-01-30T11:20:11;21.77;;;11.13;;
73642;SDS011;61938;48.652;9.292;2024-01-30T11:25:06;17.98;;;9.63;;
73642;SDS011;61938;48.652;9.292;2024-01-30T11:27:35;18.77;;;9.70;;
73642;SDS011;61938;48.652;9.292;2024-01-30T11:30:02;16.75;;;9.20;;
73642;SDS011;61938;48.652;9.292;2024-01-30T11:32:28;20.67;;;10.20;;
73642;SDS011;61938;48.652;9.292;2024-01-30T11:34:54;16.17;;;10.00;;
73642;SDS011;61938;48.652;9.292;2024-01-30T11:37:20;19.70;;;10.20;;
73642;SDS011;61938;48.652;9.292;2024-01-30T11:39:49;21.77;;;10.20;;
73642;SDS011;61938;48.652;9.292;2024-01-30T11:42:15;20.45;;;9.77;;
73642;SDS011;61938;48.652;9.292;2024-01-30T11:44:45;17.95;;;9.65;;
73642;SDS011;61938;48.652;9.292;2024-01-30T11:47:14;23.35;;;10.20;;
73642;SDS011;61938;48.652;9.292;2024-01-30T11:49:40;19.35;;;10.82;;
73642;SDS011;61938;48.652;9.292;2024-01-30T11:52:06;20.40;;;11.63;;
73642;SDS011;61938;48.652;9.292;2024-01-30T11:54:32;20.27;;;10.60;;
73642;SDS011;61938;48.652;9.292;2024-01-30T11:56:58;16.75;;;9.70;;
73642;SDS011;61938;48.652;9.292;2024-01-30T11:59:23;29.83;;;9.85;;
73642;SDS011;61938;48.652;9.292;2024-01-30T12:01:51;24.17;;;10.77;;
73642;SDS011;61938;48.652;9.292;2024-01-30T12:04:17;20.55;;;10.35;;
73642;SDS011;61938;48.652;9.292;2024-01-30T12:06:42;17.33;;;10.65;;
73642;SDS011;61938;48.652;9.292;2024-01-30T12:09:08;17.42;;;9.80;;
73642;SDS011;61938;48.652;9.292;2024-01-30T12:11:47;18.83;;;10.77;;
73642;SDS011;61938;48.652;9.292;2024-01-30T12:14:14;16.77;;;9.98;;
73642;SDS011;61938;48.652;9.292;2024-01-30T12:16:41;19.20;;;10.25;;
73642;SDS011;61938;48.652;9.292;2024-01-30T12:19:07;20.88;;;10.10;;
73642;SDS011;61938;48.652;9.292;2024-01-30T12:21:33;20.63;;;10.50;;
73642;SDS011;61938;48.652;9.292;2024-01-30T12:24:00;20.33;;;10.90;;
73642;SDS011;61938;48.652;9.292;2024-01-30T12:26:25;22.48;;;10.90;;
73642;SDS011;61938;48.652;9.292;2024-01-30T12:28:54;19.85;;;10.60;;
73642;SDS011;61938;48.652;9.292;2024-01-30T12:31:26;20.60;;;11.10;;
73642;SDS011;61938;48.652;9.292;2024-01-30T12:33:52;21.20;;;10.63;;
73642;SDS011;61938;48.652;9.292;2024-01-30T12:36:18;18.30;;;10.38;;
73642;SDS011;61938;48.652;9.292;2024-01-30T12:38:44;20.92;;;11.13;;
73642;SDS011;61938;48.652;9.292;2024-01-30T12:41:10;24.52;;;11.65;;
73642;SDS011;61938;48.652;9.292;2024-01-30T12:43:36;27.60;;;10.48;;
73642;SDS011;61938;48.652;9.292;2024-01-30T12:46:02;15.70;;;9.68;;
73642;SDS011;61938;48.652;9.292;2024-01-30T12:48:28;18.30;;;10.13;;
73642;SDS011;61938;48.652;9.292;2024-01-30T12:50:54;21.02;;;9.55;;
73642;SDS011;61938;48.652;9.292;2024-01-30T12:53:20;15.10;;;8.93;;
73642;SDS011;61938;48.652;9.292;2024-01-30T12:55:46;21.98;;;10.68;;
73642;SDS011;61938;48.652;9.292;2024-01-30T12:58:12;23.48;;;10.65;;
73642;SDS011;61938;48.652;9.292;2024-01-30T13:00:37;19.02;;;9.50;;
73642;SDS011;61938;48.652;9.292;2024-01-30T13:03:03;18.48;;;9.63;;
73642;SDS011;61938;48.652;9.292;2024-01-30T13:05:28;16.50;;;8.35;;
73642;SDS011;61938;48.652;9.292;2024-01-30T13:07:54;20.80;;;9.88;;
73642;SDS011;61938;48.652;9.292;2024-01-30T13:10:21;16.23;;;8.30;;
73642;SDS011;61938;48.652;9.292;2024-01-30T13:12:47;19.23;;;9.80;;
73642;SDS011;61938;48.652;9.292;2024-01-30T13:15:12;20.55;;;9.70;;
73642;SDS011;61938;48.652;9.292;2024-01-30T13:17:38;17.15;;;9.50;;
73642;SDS011;61938;48.652;9.292;2024-01-30T13:20:04;18.65;;;9.80;;
73642;SDS011;61938;48.652;9.292;2024-01-30T13:22:30;17.55;;;9.73;;
73642;SDS011;61938;48.652;9.292;2024-01-30T13:24:55;17.60;;;10.20;;
73642;SDS011;61938;48.652;9.292;2024-01-30T13:27:21;19.65;;;9.25;;
73642;SDS011;61938;48.652;9.292;2024-01-30T13:29:46;18.58;;;9.48;;
73642;SDS011;61938;48.652;9.292;2024-01-30T13:32:12;15.27;;;9.02;;
73642;SDS011;61938;48.652;9.292;2024-01-30T13:34:37;17.77;;;8.38;;
73642;SDS011;61938;48.652;9.292;2024-01-30T13:37:03;17.45;;;9.50;;
73642;SDS011;61938;48.652;9.292;2024-01-30T13:39:28;17.58;;;8.73;;
73642;SDS011;61938;48.652;9.292;2024-01-30T13:41:54;14.32;;;8.75;;
73642;SDS011;61938;48.652;9.292;2024-01-30T13:44:20;17.30;;;9.18;;
73642;SDS011;61938;48.652;9.292;2024-01-30T13:46:45;15.68;;;8.57;;
73642;SDS011;61938;48.652;9.292;2024-01-30T13:49:11;17.58;;;9.75;;
73642;SDS011;61938;48.652;9.292;2024-01-30T13:51:37;18.73;;;9.82;;
73642;SDS011;61938;48.652;9.292;2024-01-30T13:54:02;16.55;;;9.05;;
73642;SDS011;61938;48.652;9.292;2024-01-30T13:56:28;17.23;;;8.95;;
73642;SDS011;61938;48.652;9.292;2024-01-30T13:58:55;18.63;;;9.45;;
73642;SDS011;61938;48.652;9.292;2024-01-30T14:01:21;16.73;;;8.07;;
73642;SDS011;61938;48.652;9.292;2024-01-30T14:03:47;16.02;;;8.80;;
73642;SDS011;61938;48.652;9.292;2024-01-30T14:06:13;14.30;;;7.85;;
73642;SDS011;61938;48.652;9.292;2024-01-30T14:08:39;17.05;;;8.32;;
73642;SDS011;61938;48.652;9.292;2024-01-30T14:11:04;17.55;;;8.90;;
73642;SDS011;61938;48.652;9.292;2024-01-30T14:13:30;14.68;;;7.70;;
73642;SDS011;61938;48.652;9.292;2024-01-30T14:15:57;14.80;;;7.72;;
73642;SDS011;61938;48.652;9.292;2024-01-30T14:18:23;15.98;;;8.05;;
73642;SDS011;61938;48.652;9.292;2024-01-30T14:20:50;13.15;;;7.18;;
73642;SDS011;61938;48.652;9.292;2024-01-30T14:23:17;15.15;;;7.90;;